Time;durP1;ratioP1;P1;durP2;ratioP2;P2;SDS_P1;SDS_P2;PMS_P1;PMS_P2;Temp;Humidity;BMP_temperature;BMP_pressure;BME280_temperature;BME280_humidity;BME280_pressure;Samples;Min_cycle;Max_cycle;Signal;HPM_P1;HPM_P2
2021/01/04 00:00:05;;;;;;;17.92;15.15;;;18.50;99.90;;;;;;5030149;28;20048;-36
2021/01/04 00:02:54;;;;;;;18.98;15.52;;;18.50;99.90;;;;;;5041281;28;20021;-36
2021/01/04 00:05:59;;;;;;;17.52;14.40;;;18.50;99.90;;;;;;5037548;28;20021;-36
2021/01/04 00:09:03;;;;;;;18.13;14.10;;;18.50;99.90;;;;;;5040128;28;20025;-36
2021/01/04 00:12:01;;;;;;;17.80;14.88;;;18.50;99.90;;;;;;5044803;28;20029;-36
2021/01/04 00:14:35;;;;;;;15.98;13.45;;;18.40;99.90;;;;;;5049982;28;20029;-36
2021/01/04 00:17:38;;;;;;;17.25;14.27;;;18.40;99.90;;;;;;5042747;28;20029;-36
2021/01/04 00:20:32;;;;;;;18.40;13.57;;;18.40;99.90;;;;;;5038682;28;20021;-36
2021/01/04 00:23:13;;;;;;;15.13;13.25;;;18.40;99.90;;;;;;5041954;28;20499;-36
2021/01/04 00:25:55;;;;;;;16.13;11.82;;;18.40;99.90;;;;;;5045769;28;20038;-36
2021/01/04 00:28:23;;;;;;;16.27;13.55;;;18.30;99.90;;;;;;5040865;28;20034;-36
2021/01/04 00:31:06;;;;;;;16.10;13.15;;;18.30;99.90;;;;;;5045663;28;20029;-36
2021/01/04 00:33:44;;;;;;;15.20;11.15;;;18.20;99.90;;;;;;5042421;28;20038;-36
2021/01/04 00:36:30;;;;;;;15.80;11.85;;;18.30;99.90;;;;;;5041983;28;20021;-36
2021/01/04 00:39:08;;;;;;;15.45;12.68;;;18.30;99.90;;;;;;5049030;28;20021;-36
2021/01/04 00:41:45;;;;;;;13.70;11.18;;;18.30;99.90;;;;;;5037344;28;20036;-36
2021/01/04 00:44:36;;;;;;;13.10;11.38;;;18.20;99.90;;;;;;5040739;28;20407;-36
2021/01/04 00:47:12;;;;;;;12.55;10.45;;;18.20;99.90;;;;;;5038464;28;20044;-36
2021/01/04 00:49:43;;;;;;;12.30;10.50;;;18.20;99.90;;;;;;5042190;28;20067;-36
2021/01/04 00:52:28;;;;;;;13.38;11.43;;;18.30;99.90;;;;;;5047787;28;20033;-36
2021/01/04 00:55:04;;;;;;;12.40;10.27;;;18.20;99.90;;;;;;5044006;28;20013;-36
2021/01/04 00:57:54;;;;;;;11.07;9.68;;;18.20;99.90;;;;;;5040504;28;20333;-36
2021/01/04 01:00:28;;;;;;;11.48;9.85;;;18.20;99.90;;;;;;5038946;28;20033;-36
2021/01/04 01:03:22;;;;;;;13.77;9.88;;;18.20;99.90;;;;;;5041749;28;20426;-36
2021/01/04 01:06:04;;;;;;;11.40;9.45;;;18.10;99.90;;;;;;5040499;28;20022;-36
2021/01/04 01:08:37;;;;;;;12.10;9.70;;;18.10;99.90;;;;;;5040283;28;20055;-35
2021/01/04 01:11:09;;;;;;;11.90;9.15;;;18.10;99.90;;;;;;5044232;28;20375;-35
2021/01/04 01:13:56;;;;;;;10.93;8.75;;;18.10;99.90;;;;;;5043748;28;20108;-35
2021/01/04 01:16:41;;;;;;;11.57;9.32;;;18.10;99.90;;;;;;5044886;28;20483;-36
2021/01/04 01:19:28;;;;;;;11.40;9.10;;;18.10;99.90;;;;;;5044345;28;20030;-36
2021/01/04 01:21:54;;;;;;;;;;;18.00;99.90;;;;;;5039497;28;20471;-36
2021/01/04 01:24:20;;;;;;;10.63;8.52;;;18.10;99.90;;;;;;5041496;28;19912;-36
2021/01/04 01:27:15;;;;;;;11.55;8.77;;;18.00;99.90;;;;;;5043346;28;20041;-36
2021/01/04 01:30:11;;;;;;;10.57;7.88;;;18.00;99.90;;;;;;5040221;28;20383;-36
2021/01/04 01:33:07;;;;;;;11.63;8.10;;;17.90;99.90;;;;;;5042406;28;20030;-36
2021/01/04 01:36:00;;;;;;;10.07;7.72;;;18.00;99.90;;;;;;5046644;28;20025;-36
2021/01/04 01:38:38;;;;;;;11.80;8.45;;;18.00;99.90;;;;;;5048240;28;20105;-36
2021/01/04 01:41:22;;;;;;;12.00;8.27;;;18.00;99.90;;;;;;5043952;28;20052;-36
2021/01/04 01:44:19;;;;;;;11.98;8.60;;;17.90;99.90;;;;;;5046198;28;20021;-36
2021/01/04 01:47:06;;;;;;;11.32;9.02;;;17.70;99.90;;;;;;5050234;28;20506;-36
2021/01/04 01:49:38;;;;;;;12.07;9.85;;;17.60;99.90;;;;;;5039519;28;20400;-36
2021/01/04 01:52:37;;;;;;;13.27;9.40;;;17.50;99.90;;;;;;5040372;28;20071;-36
2021/01/04 01:55:21;;;;;;;11.27;9.43;;;17.30;99.90;;;;;;5044934;28;20029;-36
2021/01/04 01:58:11;;;;;;;12.65;9.82;;;17.30;99.90;;;;;;5044880;28;20179;-36
2021/01/04 02:01:02;;;;;;;12.52;8.57;;;17.10;99.90;;;;;;5041960;28;20021;-36
2021/01/04 02:04:00;;;;;;;12.50;9.40;;;17.00;99.90;;;;;;5042118;28;20027;-36
2021/01/04 02:06:55;;;;;;;10.82;8.63;;;16.90;99.90;;;;;;5036376;28;20035;-36
2021/01/04 02:09:27;;;;;;;11.90;9.15;;;16.90;99.90;;;;;;5048793;28;20029;-36
2021/01/04 02:11:53;;;;;;;12.63;9.48;;;16.80;99.90;;;;;;5039804;28;20506;-36
2021/01/04 02:14:55;;;;;;;12.68;8.98;;;16.80;99.90;;;;;;5043897;28;20033;-36
2021/01/04 02:17:42;;;;;;;10.48;8.05;;;16.70;99.90;;;;;;5049458;28;20075;-36
2021/01/04 02:20:11;;;;;;;;;;;16.70;99.90;;;;;;5043915;28;20033;-36
2021/01/04 02:23:02;;;;;;;10.57;8.27;;;16.60;99.90;;;;;;5036374;28;19909;-35
2021/01/04 02:25:32;;;;;;;9.85;7.80;;;16.60;99.90;;;;;;5039244;28;20416;-35
2021/01/04 02:28:05;;;;;;;11.10;7.95;;;16.50;99.90;;;;;;5038849;28;20503;-35
2021/01/04 02:30:31;;;;;;;9.27;6.95;;;16.50;99.90;;;;;;5044128;28;20449;-35
2021/01/04 02:32:57;;;;;;;8.88;7.15;;;16.50;99.90;;;;;;5038150;28;20061;-35
2021/01/04 02:35:23;;;;;;;8.40;6.50;;;16.40;99.90;;;;;;5039984;28;20028;-35
2021/01/04 02:37:50;;;;;;;9.93;7.32;;;16.30;99.90;;;;;;5040670;28;20033;-34
2021/01/04 02:40:16;;;;;;;8.93;7.07;;;16.30;99.90;;;;;;5039852;28;20072;-35
2021/01/04 02:42:46;;;;;;;8.43;7.18;;;16.30;99.90;;;;;;5044675;28;20030;-35
2021/01/04 02:45:14;;;;;;;9.57;7.35;;;16.30;99.90;;;;;;5046851;28;20032;-35
2021/01/04 02:48:17;;;;;;;8.88;6.25;;;16.20;99.90;;;;;;5045646;28;20025;-35
2021/01/04 02:51:14;;;;;;;7.78;6.97;;;16.20;99.90;;;;;;5038874;28;20040;-35
2021/01/04 02:53:51;;;;;;;8.77;6.53;;;16.10;99.90;;;;;;5040805;28;20024;-35
2021/01/04 02:56:35;;;;;;;9.82;6.38;;;16.10;99.90;;;;;;5039264;28;20767;-35
2021/01/04 02:59:01;;;;;;;8.73;6.65;;;16.10;99.90;;;;;;5048831;28;20501;-35
2021/01/04 03:01:42;;;;;;;10.27;6.97;;;16.10;99.90;;;;;;5036600;28;20029;-35
2021/01/04 03:04:12;;;;;;;9.15;6.72;;;16.10;99.90;;;;;;5036300;28;20059;-35
2021/01/04 03:06:48;;;;;;;8.45;6.88;;;16.10;99.90;;;;;;5042976;28;20025;-35
2021/01/04 03:09:14;;;;;;;7.17;5.80;;;16.10;99.90;;;;;;5046665;28;20083;-35
2021/01/04 03:11:42;;;;;;;8.63;6.47;;;16.10;99.90;;;;;;5041670;28;20271;-35
2021/01/04 03:14:22;;;;;;;9.73;7.22;;;16.00;99.90;;;;;;5042658;28;20072;-35
2021/01/04 03:16:51;;;;;;;7.70;6.13;;;16.00;99.90;;;;;;5046500;28;20029;-35
2021/01/04 03:19:21;;;;;;;7.90;6.13;;;15.90;99.90;;;;;;5044603;28;20052;-35
2021/01/04 03:22:04;;;;;;;8.32;6.45;;;15.90;99.90;;;;;;5041912;28;20487;-36
2021/01/04 03:24:30;;;;;;;8.77;6.25;;;15.90;99.90;;;;;;5041008;28;20068;-35
2021/01/04 03:27:10;;;;;;;7.93;5.45;;;15.90;99.90;;;;;;5040718;28;20395;-36
2021/01/04 03:29:36;;;;;;;7.32;5.72;;;15.90;99.90;;;;;;5039538;28;20032;-36
2021/01/04 03:32:02;;;;;;;9.15;6.57;;;15.90;99.90;;;;;;5046210;28;20029;-36
2021/01/04 03:34:28;;;;;;;6.78;6.03;;;15.80;99.90;;;;;;5043380;28;20061;-36
2021/01/04 03:36:54;;;;;;;6.57;5.13;;;15.80;99.90;;;;;;5036730;28;20033;-36
2021/01/04 03:39:20;;;;;;;7.55;5.00;;;15.80;99.90;;;;;;5037227;28;20039;-35
2021/01/04 03:41:47;;;;;;;6.63;5.03;;;15.80;99.90;;;;;;5039128;28;20029;-35
2021/01/04 03:44:13;;;;;;;7.18;5.35;;;15.70;99.90;;;;;;5041158;28;20559;-35
2021/01/04 03:46:45;;;;;;;6.15;4.80;;;15.70;99.90;;;;;;5037253;28;20038;-35
2021/01/04 03:49:12;;;;;;;7.53;5.43;;;15.60;99.90;;;;;;5038326;28;20430;-36
2021/01/04 03:51:38;;;;;;;6.38;4.82;;;15.70;99.90;;;;;;5037642;28;20033;-36
2021/01/04 03:54:04;;;;;;;7.75;4.68;;;15.70;99.90;;;;;;5040391;28;20026;-35
2021/01/04 03:56:30;;;;;;;7.55;5.22;;;15.70;99.90;;;;;;5042831;28;20029;-35
2021/01/04 03:58:55;;;;;;;6.40;4.78;;;15.70;99.90;;;;;;5051305;28;20098;-35
2021/01/04 04:01:21;;;;;;;5.50;4.85;;;15.60;99.90;;;;;;5038437;28;20475;-35
2021/01/04 04:03:47;;;;;;;6.05;4.68;;;15.60;99.90;;;;;;5037499;28;20110;-36
2021/01/04 04:06:13;;;;;;;9.45;4.93;;;15.60;99.90;;;;;;5038852;28;20112;-35
2021/01/04 04:08:40;;;;;;;5.13;4.35;;;15.60;99.90;;;;;;5040805;28;20538;-36
2021/01/04 04:11:06;;;;;;;9.00;4.68;;;15.60;99.90;;;;;;5048096;28;20033;-36
2021/01/04 04:13:32;;;;;;;5.65;4.30;;;15.60;99.90;;;;;;5034965;28;20090;-36
2021/01/04 04:15:58;;;;;;;5.63;5.00;;;15.50;99.90;;;;;;5038991;28;20116;-36
2021/01/04 04:18:24;;;;;;;5.57;3.95;;;15.50;99.90;;;;;;5035867;28;20360;-35
2021/01/04 04:20:50;;;;;;;5.72;3.92;;;15.50;99.90;;;;;;5038011;28;20038;-36
2021/01/04 04:23:16;;;;;;;5.22;3.70;;;15.60;99.90;;;;;;5045231;28;20151;-35
2021/01/04 04:25:42;;;;;;;5.13;3.85;;;15.50;99.90;;;;;;5038047;28;20040;-35
2021/01/04 04:28:08;;;;;;;5.60;3.97;;;15.50;99.90;;;;;;5035854;28;20104;-35
2021/01/04 04:30:34;;;;;;;5.68;4.45;;;15.50;99.90;;;;;;5042617;28;20112;-35
2021/01/04 04:33:00;;;;;;;3.97;3.40;;;15.50;99.90;;;;;;5035088;28;20036;-35
2021/01/04 04:35:28;;;;;;;6.22;4.32;;;15.50;99.90;;;;;;5045699;28;20429;-35
2021/01/04 04:37:54;;;;;;;4.88;3.67;;;15.50;99.90;;;;;;5039904;28;20033;-35
2021/01/04 04:40:24;;;;;;;6.28;4.00;;;15.40;99.90;;;;;;5036715;28;20029;-35
2021/01/04 04:43:20;;;;;;;5.18;3.40;;;15.40;99.90;;;;;;5036469;28;20052;-35
2021/01/04 04:45:49;;;;;;;6.88;3.88;;;15.40;99.90;;;;;;5044320;28;20032;-35
2021/01/04 04:48:44;;;;;;;4.60;3.80;;;15.50;99.90;;;;;;5040375;28;20025;-35
2021/01/04 04:51:53;;;;;;;3.63;3.15;;;15.40;99.90;;;;;;5047114;28;20059;-35
2021/01/04 04:54:50;;;;;;;4.10;3.10;;;15.50;99.90;;;;;;5043538;28;20129;-36
2021/01/04 04:58:00;;;;;;;5.18;4.10;;;15.40;99.90;;;;;;5045664;28;20037;-36
2021/01/04 05:00:37;;;;;;;5.10;4.03;;;15.40;99.90;;;;;;5033354;28;20042;-35
2021/01/04 05:03:15;;;;;;;6.20;3.22;;;15.40;99.90;;;;;;5033508;28;20514;-35
2021/01/04 05:05:54;;;;;;;4.85;3.60;;;15.40;99.90;;;;;;5033453;28;20139;-35
2021/01/04 05:08:38;;;;;;;5.57;3.45;;;15.40;99.90;;;;;;5032539;28;20041;-35
2021/01/04 05:11:06;;;;;;;4.07;3.55;;;15.40;99.90;;;;;;5035423;28;20566;-35
2021/01/04 05:13:42;;;;;;;6.05;4.25;;;15.40;99.90;;;;;;5033035;28;20048;-36
2021/01/04 05:16:15;;;;;;;5.35;3.50;;;15.30;99.90;;;;;;5032538;28;20053;-36
2021/01/04 05:19:21;;;;;;;3.63;2.97;;;15.40;99.90;;;;;;5032353;28;20044;-36
2021/01/04 05:22:02;;;;;;;5.45;3.65;;;15.40;99.90;;;;;;5025034;28;20049;-36
2021/01/04 05:25:21;;;;;;;7.38;3.75;;;15.30;99.90;;;;;;5032308;28;20484;-36
2021/01/04 05:28:09;;;;;;;3.90;3.28;;;15.30;99.90;;;;;;4934524;29;20051;-34
2021/01/04 05:30:53;;;;;;;4.43;3.40;;;15.30;99.90;;;;;;4935013;29;20075;-34
2021/01/04 05:33:31;;;;;;;4.90;3.05;;;15.30;99.90;;;;;;4937745;29;20047;-34
2021/01/04 05:36:36;;;;;;;5.05;4.07;;;15.30;99.90;;;;;;4944384;28;20063;-34
2021/01/04 05:39:02;;;;;;;5.07;3.40;;;15.30;99.90;;;;;;4984266;28;20035;-35
2021/01/04 05:41:28;;;;;;;3.58;2.85;;;15.30;99.90;;;;;;4984162;28;20145;-34
2021/01/04 05:44:22;;;;;;;3.35;2.67;;;15.30;99.90;;;;;;4981860;28;20079;-35
2021/01/04 05:47:24;;;;;;;5.00;3.05;;;15.20;99.90;;;;;;4981873;28;20077;-35
2021/01/04 05:50:07;;;;;;;4.00;2.92;;;15.20;99.90;;;;;;4963840;28;20042;-34
2021/01/04 05:52:34;;;;;;;4.60;3.30;;;15.20;99.90;;;;;;4987130;28;20132;-34
2021/01/04 05:55:01;;;;;;;4.07;3.05;;;15.20;99.90;;;;;;4975979;28;20063;-34
2021/01/04 05:57:28;;;;;;;4.10;2.70;;;15.20;99.90;;;;;;4986458;28;20035;-35
2021/01/04 05:59:56;;;;;;;3.60;3.00;;;15.20;99.90;;;;;;4986881;28;20717;-35
2021/01/04 06:02:35;;;;;;;5.78;3.00;;;15.20;99.90;;;;;;5026643;28;20045;-34
2021/01/04 06:05:10;;;;;;;4.80;3.05;;;15.20;99.90;;;;;;5040449;28;20017;-34
2021/01/04 06:07:41;;;;;;;3.95;2.95;;;15.20;99.90;;;;;;5044509;28;20075;-34
2021/01/04 06:10:17;;;;;;;3.20;2.83;;;15.20;99.90;;;;;;5043833;28;20021;-34
2021/01/04 06:12:47;;;;;;;4.50;3.25;;;15.20;99.90;;;;;;5041544;28;20064;-35
2021/01/04 06:15:13;;;;;;;2.97;2.67;;;15.10;99.90;;;;;;5042877;28;20025;-34
2021/01/04 06:17:43;;;;;;;3.40;3.00;;;15.10;99.90;;;;;;5037875;28;20023;-34
2021/01/04 06:20:18;;;;;;;6.88;3.00;;;15.20;99.90;;;;;;5036123;28;20032;-35
2021/01/04 06:22:44;;;;;;;3.22;2.83;;;15.10;99.90;;;;;;5039191;28;20029;-34
2021/01/04 06:25:10;;;;;;;5.03;2.72;;;15.20;99.90;;;;;;5041313;28;20091;-35
2021/01/04 06:27:39;;;;;;;4.95;2.95;;;15.20;99.90;;;;;;5038674;28;20047;-34
2021/01/04 06:30:27;;;;;;;3.17;2.80;;;15.10;99.90;;;;;;5043457;28;20482;-34
2021/01/04 06:32:53;;;;;;;6.00;3.00;;;15.10;99.90;;;;;;5038382;28;20426;-35
2021/01/04 06:35:24;;;;;;;4.80;2.97;;;15.10;99.90;;;;;;5035627;28;20068;-34
2021/01/04 06:38:01;;;;;;;5.25;2.88;;;15.10;99.90;;;;;;5043644;28;20091;-34
2021/01/04 06:40:33;;;;;;;3.15;2.85;;;15.10;99.90;;;;;;5044701;28;20033;-34
2021/01/04 06:43:15;;;;;;;3.83;2.70;;;15.10;99.90;;;;;;5037076;28;20483;-35
2021/01/04 06:46:02;;;;;;;4.13;2.85;;;15.10;99.90;;;;;;5042400;28;20029;-35
2021/01/04 06:48:40;;;;;;;4.50;2.77;;;15.10;99.90;;;;;;5041695;28;20065;-34
2021/01/04 06:51:24;;;;;;;;;;;15.10;99.90;;;;;;5037249;28;20482;-34
2021/01/04 06:54:08;;;;;;;4.30;3.22;;;15.10;99.90;;;;;;5043596;28;20385;-34
2021/01/04 06:57:18;;;;;;;3.15;2.72;;;15.10;99.90;;;;;;5043370;28;20025;-34
2021/01/04 07:00:14;;;;;;;4.57;3.15;;;15.10;99.90;;;;;;5043467;28;20364;-35
2021/01/04 07:02:59;;;;;;;5.72;2.85;;;15.10;99.90;;;;;;5049580;28;20147;-35
2021/01/04 07:05:40;;;;;;;5.32;3.50;;;15.00;99.90;;;;;;5033794;28;20483;-35
2021/01/04 07:08:15;;;;;;;4.78;3.40;;;15.00;99.90;;;;;;5044524;28;20021;-35
2021/01/04 07:10:53;;;;;;;4.25;3.25;;;15.00;99.90;;;;;;5044788;28;20422;-35
2021/01/04 07:13:49;;;;;;;7.13;3.10;;;15.00;99.90;;;;;;5051275;28;20021;-35
2021/01/04 07:16:15;;;;;;;3.85;3.45;;;15.00;99.90;;;;;;5038485;28;20029;-35
2021/01/04 07:19:08;;;;;;;6.28;3.50;;;15.00;99.90;;;;;;5040790;28;20029;-35
2021/01/04 07:21:39;;;;;;;7.15;3.65;;;15.00;99.90;;;;;;5044761;28;20029;-35
2021/01/04 07:24:14;;;;;;;7.53;3.85;;;15.00;99.90;;;;;;5022701;28;20045;-35
2021/01/04 07:26:53;;;;;;;4.75;3.83;;;15.00;99.90;;;;;;5041302;28;20054;-35
2021/01/04 07:29:44;;;;;;;5.47;3.90;;;15.00;99.90;;;;;;5034428;28;20030;-35
2021/01/04 07:32:23;;;;;;;7.15;5.13;;;15.00;99.90;;;;;;5043106;28;20032;-35
2021/01/04 07:35:01;;;;;;;7.90;4.97;;;15.00;99.90;;;;;;5038530;28;20033;-35
2021/01/04 07:37:30;;;;;;;;;;;15.00;99.90;;;;;;5040706;28;20033;-35
2021/01/04 07:40:10;;;;;;;9.15;4.80;;;15.00;99.90;;;;;;5037764;28;19909;-36
2021/01/04 07:43:05;;;;;;;6.63;4.65;;;15.00;99.90;;;;;;5036186;28;20431;-37
2021/01/04 07:45:46;;;;;;;9.05;4.30;;;15.00;99.90;;;;;;5037899;28;20105;-37
2021/01/04 07:48:47;;;;;;;7.15;4.75;;;15.00;99.90;;;;;;5035296;28;20033;-45
2021/01/04 07:51:55;;;;;;;8.50;5.13;;;15.00;99.90;;;;;;5040843;28;20029;-43
2021/01/04 07:54:44;;;;;;;8.23;4.80;;;15.00;99.90;;;;;;5039068;28;20383;-44
2021/01/04 07:57:21;;;;;;;9.15;4.82;;;15.10;99.90;;;;;;5043114;28;20025;-44
2021/01/04 08:00:06;;;;;;;9.38;5.00;;;15.10;99.90;;;;;;5043235;28;20028;-44
2021/01/04 08:02:56;;;;;;;5.78;4.25;;;15.10;99.90;;;;;;5033761;28;20025;-44
2021/01/04 08:05:43;;;;;;;6.45;4.85;;;15.20;99.90;;;;;;5031516;28;20032;-44
2021/01/04 08:08:24;;;;;;;9.07;5.43;;;15.20;99.90;;;;;;5034361;28;20052;-44
2021/01/04 08:11:00;;;;;;;7.03;4.50;;;15.20;99.90;;;;;;5037340;28;20365;-43
2021/01/04 08:13:57;;;;;;;8.02;5.07;;;15.20;99.90;;;;;;5031418;28;20112;-43
2021/01/04 08:16:33;;;;;;;8.40;6.10;;;15.20;99.90;;;;;;5034114;28;20112;-44
2021/01/04 08:19:04;;;;;;;9.38;6.07;;;15.30;99.90;;;;;;5034880;28;20030;-44
2021/01/04 08:22:05;;;;;;;9.50;5.90;;;15.30;99.90;;;;;;5035024;28;20105;-44
2021/01/04 08:24:42;;;;;;;14.77;7.20;;;15.40;99.90;;;;;;5036793;28;20045;-44
2021/01/04 08:27:23;;;;;;;10.05;8.05;;;15.40;99.90;;;;;;5045682;28;20049;-44
2021/01/04 08:30:04;;;;;;;13.32;9.68;;;15.50;99.90;;;;;;5045298;28;20028;-44
2021/01/04 08:32:40;;;;;;;11.57;8.68;;;15.60;99.90;;;;;;5039822;28;20044;-44
2021/01/04 08:35:12;;;;;;;14.43;8.68;;;15.70;99.90;;;;;;5039319;28;20402;-44
2021/01/04 08:37:43;;;;;;;13.98;9.55;;;15.80;99.90;;;;;;5040755;28;20475;-44
2021/01/04 08:40:21;;;;;;;13.63;8.38;;;15.80;99.90;;;;;;5036617;28;20032;-43
2021/01/04 08:43:17;;;;;;;12.18;7.97;;;15.90;99.90;;;;;;5040445;28;20079;-43
2021/01/04 08:45:45;;;;;;;14.88;10.65;;;16.00;99.90;;;;;;5038418;28;20026;-43
2021/01/04 08:48:20;;;;;;;35.17;25.55;;;16.00;99.90;;;;;;5039609;28;20040;-44
2021/01/04 08:51:01;;;;;;;42.88;30.63;;;16.10;99.90;;;;;;5044372;28;20036;-44
2021/01/04 08:53:26;;;;;;;28.00;19.85;;;16.10;99.90;;;;;;5050493;28;20147;-44
2021/01/04 08:56:27;;;;;;;24.85;17.65;;;16.10;99.90;;;;;;5047208;28;20103;-43
2021/01/04 08:59:06;;;;;;;30.52;19.58;;;16.10;99.90;;;;;;5035385;28;20052;-44
2021/01/04 09:01:33;;;;;;;24.27;18.13;;;16.20;99.90;;;;;;5041155;28;20013;-44
2021/01/04 09:04:08;;;;;;;26.88;20.17;;;16.10;99.90;;;;;;5042078;28;20033;-43
2021/01/04 09:06:42;;;;;;;23.13;16.52;;;16.20;99.90;;;;;;5050631;28;20078;-43
2021/01/04 09:09:16;;;;;;;23.58;17.48;;;16.20;99.90;;;;;;5037368;28;20536;-43
2021/01/04 09:12:03;;;;;;;24.38;17.55;;;16.10;99.90;;;;;;5039666;28;20053;-43
2021/01/04 09:14:44;;;;;;;29.17;20.35;;;16.10;99.90;;;;;;5043077;28;20167;-43
2021/01/04 09:17:50;;;;;;;27.02;18.25;;;16.10;99.90;;;;;;5038713;28;20030;-43
2021/01/04 09:20:19;;;;;;;23.40;17.52;;;16.10;99.90;;;;;;5048238;28;20052;-44
2021/01/04 09:23:01;;;;;;;23.25;16.13;;;15.90;99.90;;;;;;5046019;28;20404;-44
2021/01/04 09:26:02;;;;;;;24.48;16.73;;;15.90;99.90;;;;;;5037823;28;20076;-44
2021/01/04 09:28:39;;;;;;;26.35;17.50;;;15.90;99.90;;;;;;5035716;28;20033;-43
2021/01/04 09:31:06;;;;;;;25.50;18.60;;;16.00;99.90;;;;;;5041418;28;20028;-44
2021/01/04 09:33:43;;;;;;;22.23;17.33;;;16.00;99.90;;;;;;5036978;28;20436;-44
2021/01/04 09:36:09;;;;;;;24.92;18.38;;;16.00;99.90;;;;;;5043828;28;20036;-44
2021/01/04 09:38:35;;;;;;;18.88;13.43;;;15.90;99.90;;;;;;5047178;28;20043;-44
2021/01/04 09:41:08;;;;;;;22.92;16.38;;;15.90;99.90;;;;;;5043189;28;20021;-44
2021/01/04 09:43:37;;;;;;;19.05;15.55;;;15.90;99.90;;;;;;5036226;28;20108;-44
2021/01/04 09:46:18;;;;;;;23.13;17.08;;;15.90;99.90;;;;;;5042060;28;20025;-44
2021/01/04 09:49:07;;;;;;;19.80;14.55;;;15.90;99.90;;;;;;5036787;28;20388;-44
2021/01/04 09:51:43;;;;;;;24.55;16.70;;;15.80;99.90;;;;;;5043289;28;20061;-44
2021/01/04 09:54:15;;;;;;;21.00;14.38;;;15.80;99.90;;;;;;5041333;28;20037;-44
2021/01/04 09:56:41;;;;;;;14.70;11.82;;;15.80;99.90;;;;;;5037294;28;20025;-44
2021/01/04 09:59:25;;;;;;;18.05;13.27;;;15.80;99.90;;;;;;5037226;28;20033;-44
2021/01/04 10:01:55;;;;;;;18.52;12.75;;;16.00;99.90;;;;;;5038757;28;20025;-44
2021/01/04 10:04:33;;;;;;;17.83;13.57;;;15.80;99.90;;;;;;5036939;28;20079;-44
2021/01/04 10:07:03;;;;;;;15.07;12.60;;;15.90;99.90;;;;;;5035562;28;20456;-44
2021/01/04 10:09:37;;;;;;;16.98;10.93;;;16.00;99.90;;;;;;5038190;28;20510;-44
2021/01/04 10:12:05;;;;;;;14.43;9.52;;;16.00;99.90;;;;;;5040987;28;20160;-44
2021/01/04 10:14:32;;;;;;;15.13;11.48;;;16.00;99.90;;;;;;5041425;28;20029;-44
2021/01/04 10:17:01;;;;;;;16.38;11.82;;;16.10;99.90;;;;;;5038683;28;20033;-44
2021/01/04 10:19:50;;;;;;;14.52;10.00;;;16.10;99.90;;;;;;5038195;28;20491;-44
2021/01/04 10:22:29;;;;;;;14.80;9.98;;;16.10;99.90;;;;;;5033289;28;20026;-44
2021/01/04 10:25:11;;;;;;;17.55;8.55;;;16.10;99.90;;;;;;5037471;28;20038;-44
2021/01/04 10:27:37;;;;;;;8.85;6.82;;;16.10;99.90;;;;;;5037771;28;20037;-44
2021/01/04 10:30:06;;;;;;;9.40;7.10;;;16.00;99.90;;;;;;5041569;28;20030;-44
2021/01/04 10:32:34;;;;;;;11.73;7.63;;;16.10;99.90;;;;;;5042994;28;20376;-44
2021/01/04 10:35:01;;;;;;;8.45;5.70;;;16.00;99.90;;;;;;5038433;28;20025;-44
2021/01/04 10:37:51;;;;;;;9.65;6.07;;;16.00;99.90;;;;;;5040523;28;20029;-44
2021/01/04 10:40:23;;;;;;;12.95;6.60;;;16.20;99.90;;;;;;5038574;28;20029;-44
2021/01/04 10:43:01;;;;;;;9.20;6.20;;;16.40;99.90;;;;;;5037637;28;20502;-44
2021/01/04 10:45:36;;;;;;;15.75;8.57;;;16.60;99.90;;;;;;5034796;28;20024;-44
2021/01/04 10:48:13;;;;;;;14.30;7.65;;;16.80;99.90;;;;;;5039417;28;20035;-44
2021/01/04 10:50:47;;;;;;;12.13;6.15;;;16.80;99.90;;;;;;5036323;28;20487;-43
2021/01/04 10:53:39;;;;;;;7.85;5.40;;;16.60;99.90;;;;;;5036887;28;20108;-45
2021/01/04 10:56:14;;;;;;;8.40;3.85;;;16.60;99.90;;;;;;5041007;28;20029;-45
2021/01/04 10:58:46;;;;;;;9.52;5.80;;;16.70;99.90;;;;;;5038021;28;20041;-44
2021/01/04 11:01:23;;;;;;;9.70;5.10;;;16.90;99.90;;;;;;5036170;28;20049;-45
2021/01/04 11:03:53;;;;;;;6.80;3.67;;;17.00;99.90;;;;;;5036516;28;20025;-44
2021/01/04 11:06:25;;;;;;;12.88;7.80;;;17.10;99.90;;;;;;5039825;28;20056;-44
2021/01/04 11:08:51;;;;;;;23.10;16.15;;;17.20;99.90;;;;;;5038585;28;20032;-43
2021/01/04 11:11:34;;;;;;;25.95;18.13;;;17.30;99.90;;;;;;5044793;28;20391;-43
2021/01/04 11:14:18;;;;;;;21.75;16.70;;;17.50;99.90;;;;;;5031844;28;20506;-43
2021/01/04 11:16:49;;;;;;;22.42;16.58;;;17.60;99.90;;;;;;5034752;28;20029;-43
2021/01/04 11:19:26;;;;;;;21.02;14.75;;;17.70;99.90;;;;;;5039891;28;20506;-43
2021/01/04 11:21:52;;;;;;;28.55;14.73;;;17.80;99.90;;;;;;5034155;28;20018;-43
2021/01/04 11:24:18;;;;;;;25.67;14.27;;;17.90;99.90;;;;;;5041623;28;20034;-44
2021/01/04 11:26:45;;;;;;;20.23;13.38;;;17.90;99.90;;;;;;5035482;28;20132;-43
2021/01/04 11:29:11;;;;;;;22.85;13.32;;;18.10;99.90;;;;;;5036952;28;20082;-43
2021/01/04 11:31:38;;;;;;;20.73;12.18;;;18.20;99.90;;;;;;5032401;28;20302;-43
2021/01/04 11:34:04;;;;;;;33.60;20.50;;;18.40;99.90;;;;;;5032693;28;20073;-44
2021/01/04 11:36:31;;;;;;;23.50;17.67;;;18.50;99.90;;;;;;5033101;28;20506;-42
2021/01/04 11:38:57;;;;;;;25.63;18.65;;;18.60;99.90;;;;;;5032215;28;20121;-39
2021/01/04 11:41:23;;;;;;;36.42;23.27;;;18.80;99.90;;;;;;5035961;28;20113;-39
2021/01/04 11:43:50;;;;;;;56.17;40.70;;;19.00;99.90;;;;;;5043861;28;20053;-39
2021/01/04 11:46:18;;;;;;;35.38;23.73;;;19.00;99.90;;;;;;5036882;28;20021;-39
2021/01/04 11:48:46;;;;;;;18.48;12.13;;;19.00;99.90;;;;;;5039309;28;20499;-39
2021/01/04 11:51:15;;;;;;;;;;;19.00;99.90;;;;;;5042806;28;20037;-39
2021/01/04 11:53:41;;;;;;;15.05;10.35;;;19.20;99.90;;;;;;5039426;28;19909;-39
2021/01/04 11:56:07;;;;;;;19.70;12.05;;;19.10;99.90;;;;;;5041928;28;20079;-35
2021/01/04 11:58:39;;;;;;;15.60;9.32;;;19.10;99.90;;;;;;5037961;28;20169;-35
2021/01/04 12:01:06;;;;;;;18.25;12.88;;;18.90;99.90;;;;;;5034790;28;20021;-32
2021/01/04 12:03:32;;;;;;;20.65;12.75;;;18.80;99.90;;;;;;5045385;28;20029;-34
2021/01/04 12:05:58;;;;;;;19.50;9.65;;;19.00;99.90;;;;;;5044892;28;20383;-34
2021/01/04 12:08:24;;;;;;;17.48;11.48;;;19.00;99.90;;;;;;5047270;28;20033;-34
2021/01/04 12:10:50;;;;;;;18.40;11.55;;;19.10;99.90;;;;;;5028077;28;20025;-34
2021/01/04 12:13:15;;;;;;;17.85;10.85;;;19.00;99.90;;;;;;5040894;28;20364;-34
2021/01/04 12:15:42;;;;;;;15.02;11.18;;;19.10;99.90;;;;;;5042361;28;20032;-34
2021/01/04 12:18:08;;;;;;;15.60;10.03;;;19.00;99.90;;;;;;5033519;28;20487;-35
2021/01/04 12:20:34;;;;;;;13.63;9.90;;;18.90;99.90;;;;;;5040063;28;20285;-34
2021/01/04 12:23:00;;;;;;;14.55;9.77;;;19.00;99.90;;;;;;5042945;28;20045;-34
2021/01/04 12:25:26;;;;;;;14.68;9.18;;;19.10;99.90;;;;;;5034280;28;20025;-35
2021/01/04 12:27:52;;;;;;;26.08;18.48;;;19.10;99.90;;;;;;5038298;28;20064;-29
2021/01/04 12:30:19;;;;;;;29.95;21.20;;;19.30;99.90;;;;;;5044523;28;20159;-29
2021/01/04 12:32:45;;;;;;;38.00;21.00;;;19.30;99.90;;;;;;5047278;28;20044;-29
2021/01/04 12:35:12;;;;;;;32.83;23.83;;;19.30;99.90;;;;;;5041653;28;20066;-29
2021/01/04 12:37:38;;;;;;;36.63;23.92;;;19.30;99.90;;;;;;5043413;28;20024;-29
2021/01/04 12:40:12;;;;;;;35.90;25.35;;;19.30;99.90;;;;;;5040038;28;20021;-29
2021/01/04 12:42:40;;;;;;;33.97;24.27;;;19.30;99.90;;;;;;5033747;28;20028;-29
2021/01/04 12:45:06;;;;;;;;;;;19.40;99.90;;;;;;5046092;28;20024;-29
2021/01/04 12:47:32;;;;;;;24.00;19.20;;;19.40;99.90;;;;;;5042639;28;19916;-29
2021/01/04 12:49:58;;;;;;;25.88;20.42;;;19.60;99.90;;;;;;5045085;28;20021;-29
2021/01/04 12:52:24;;;;;;;26.75;19.58;;;19.50;99.90;;;;;;5040896;28;20061;-29
2021/01/04 12:54:50;;;;;;;24.67;18.85;;;19.50;99.90;;;;;;5040929;28;20025;-29
2021/01/04 12:57:18;;;;;;;19.73;15.88;;;19.70;99.90;;;;;;5033968;28;20028;-30
2021/01/04 12:59:44;;;;;;;22.30;16.25;;;19.80;99.90;;;;;;5036127;28;20037;-35
2021/01/04 13:02:13;;;;;;;20.25;14.63;;;19.90;99.90;;;;;;5034367;28;20045;-34
2021/01/04 13:04:42;;;;;;;19.38;13.23;;;20.00;99.90;;;;;;5032238;28;20446;-35
2021/01/04 13:07:09;;;;;;;17.83;11.88;;;20.10;99.90;;;;;;5041417;28;20029;-35
2021/01/04 13:09:36;;;;;;;17.42;12.38;;;20.20;99.90;;;;;;5039522;28;20456;-35
2021/01/04 13:12:02;;;;;;;19.23;13.95;;;20.30;99.90;;;;;;5022255;28;20042;-34
2021/01/04 13:14:28;;;;;;;18.40;12.75;;;20.40;99.90;;;;;;5042098;28;20097;-34
2021/01/04 13:16:56;;;;;;;15.52;11.90;;;20.40;99.90;;;;;;5040798;28;20103;-34
2021/01/04 13:19:27;;;;;;;;;;;20.50;99.90;;;;;;5041888;28;20448;-34
2021/01/04 13:21:54;;;;;;;22.45;12.73;;;20.60;99.90;;;;;;5049879;28;19920;-34
2021/01/04 13:24:20;;;;;;;17.92;12.07;;;20.70;99.90;;;;;;5051105;28;20028;-30
2021/01/04 13:26:48;;;;;;;12.40;10.80;;;20.70;99.90;;;;;;5048364;28;20515;-30